x

Buoy F01 - West Penobscot Bay (44033) Wave Buoy

7:04am - Thu 22nd Jun 2017 All times are EDT. -4 hours from GMT.

  • Sig Wave height 2.0ft
  • Peak Period 6s
  • Wind
    9mph, 9mph gusts
  • Sea Temp 52°f
  • Air Temp 58°f
  • Sea Pressure 1012.1mb
  • Buoy F01 - West Penobscot Bay
  • Buoy F01 - West Penobscot Bay

More Historic Weather Station data

Upgrade to MSW Pro to gain access to the past 30 days of data for over 8000 Wavebouys and Weather Stations around the globe.

Join Pro

Comparision Forecast

View Surf forecast
   
Thu 06/22 7:04am 2ft 6s 9 9 mph 1012.1mb 52f 58f
6:04am 2ft 5s 7 9 mph 1011.7mb 53f 57f
5:04am 2ft 8s 4 4 mph 1011.5mb 54f 58f
4:04am 1.6ft 6s 4 7 mph 1011.3mb 55f 58f
3:04am 1.6ft 5s 4 7 mph 1011.1mb 52f 58f
2:04am 1.3ft 5s 7 9 mph 1011.1mb 51f 59f
12:04am 1.6ft 6s 4 7 mph 1010mb 51f 63f
Wed 06/21 11:04pm 2ft 6s 4 7 mph 1009.7mb 51f 60f
10:04pm 2ft 8s 4 4 mph 1008.9mb 51f 61f
9:04pm 2.5ft 8s 4 7 mph 1008.3mb 51f 62f
8:04pm 2.5ft 8s 7 9 mph 1007.8mb 51f 63f
7:04pm 2ft 8s 4 4 mph 1007.2mb 50f 58f
6:04pm 2.5ft 8s 7 9 mph 1006.6mb 50f 57f
5:04pm 2ft 8s 9 9 mph 1006.6mb 50f 56f
4:04pm 2ft 8s 9 11 mph 1006.9mb 51f 56f
3:04pm 2.5ft 8s 11 13 mph 1006.7mb 51f 56f
2:04pm 2ft 6s 16 18 mph 1007.3mb 50f 56f
1:04pm 2ft 5s 13 13 mph 1007.5mb 51f 55f
12:04pm 2ft 6s 9 11 mph 1008.2mb 51f 55f
11:04am 2.5ft 8s 11 11 mph 1008.7mb 50f 55f
10:04am 2.5ft 6s 9 9 mph 1008.9mb 51f 55f
9:04am 2.5ft 6s 11 13 mph 1009.5mb 50f 56f
8:04am 3ft 8s 13 18 mph 1010.1mb 50f 56f
7:04am 3ft 6s 11 13 mph 1009.9mb 51f 56f
5:04am 2.5ft 6s 7 9 mph 1010.3mb 50f 55f
4:04am 2.5ft 6s 9 11 mph 1010.2mb 50f 54f
3:04am 2.5ft 6s 7 9 mph 1010.3mb 50f 55f
2:04am 2.5ft 8s 7 7 mph 1010.3mb 50f 58f
1:04am 3ft 6s 4 9 mph 1010.5mb 51f 57f
12:04am 2.5ft 6s 9 9 mph 1010.3mb 51f 56f
Tue 06/20 11:04pm 2.5ft 6s 7 7 mph 1010.1mb 51f 54f
10:04pm 3ft 8s 7 9 mph 1009.6mb 51f 55f
9:04pm 3.5ft 8s 7 9 mph 1008.8mb 51f 56f
8:04pm 3.5ft 8s 9 11 mph 1008.1mb 51f 56f
7:04pm 3.5ft 5s 13 16 mph 1007.4mb 51f 58f
6:04pm 3.5ft 5s 13 16 mph 1006.9mb 50f 57f
5:04pm 4.5ft 8s 16 18 mph 1006.9mb 51f 58f
4:04pm 3.5ft 6s 13 18 mph 1007.3mb 51f 57f
3:04pm 3.5ft 6s 13 16 mph 1007.5mb 51f 57f
2:04pm 3.5ft 6s 13 16 mph 1007.7mb 51f 56f
1:04pm 3.5ft 6s 11 13 mph 1008.1mb 51f 56f
12:04pm 3.5ft 8s 11 16 mph 1008.4mb 51f 56f
11:04am 3.5ft 6s 7 9 mph 1008.5mb 51f 55f
10:04am 3.5ft 6s 11 13 mph 1008.6mb 51f 55f
9:04am 3.5ft 6s 13 16 mph 1008.6mb 51f 55f
8:04am 3.5ft 6s 11 16 mph 1009.2mb 51f 55f
7:04am 3.5ft 6s 13 16 mph 1009.2mb 51f 56f
6:04am 3.5ft 6s 9 11 mph 1009mb 51f 56f
5:04am 3.5ft 6s 9 11 mph 1009.1mb 51f 55f
4:04am 3ft 6s 9 9 mph 1009.3mb 51f 54f
3:04am 3.5ft 6s 9 11 mph 1008.7mb 51f 55f
2:04am 4ft 8s 7 9 mph 1008.8mb 51f 54f
1:04am 4ft 6s 9 11 mph 1009.4mb 51f 56f
12:04am 3.5ft 6s 9 11 mph 1009.2mb 51f 55f
Mon 06/19 11:04pm 4ft 6s 11 16 mph 1009.7mb 51f 58f
10:04pm 3.5ft 6s 11 13 mph 1009.9mb 52f 58f
9:04pm 4ft 6s 9 11 mph 1009.7mb 52f 56f
8:04pm 4.5ft 8s 16 18 mph 1009.1mb 52f 60f
7:04pm 4.5ft 6s 13 18 mph 1009.5mb 52f 58f
6:04pm 4ft 6s 9 11 mph 1008.3mb 52f 57f
5:04pm 4ft 8s 13 16 mph 1008.8mb 52f 56f
4:04pm 3.5ft 6s 11 13 mph 1008.9mb 53f 56f
3:04pm 3.5ft 8s 7 7 mph 1009.3mb 53f 56f
2:04pm 3.5ft 5s 7 11 mph 1009.8mb 52f 57f
1:04pm 3.5ft 6s 7 11 mph 1010.3mb 53f 57f
12:04pm 3.5ft 6s 9 11 mph 1010.2mb 52f 56f
11:04am 3.5ft 6s 11 13 mph 1010.5mb 52f 57f
10:04am 3ft 6s 13 13 mph 1010.1mb 52f 57f
9:04am 3.5ft 6s 11 11 mph 1010mb 52f 56f
8:04am 3.5ft 8s 13 16 mph 1009.7mb 52f 56f
7:04am 4ft 6s 11 13 mph 1009.4mb 52f 55f
6:04am 4ft 6s 11 13 mph 1009.2mb 52f 55f
5:04am 4.5ft 6s 13 16 mph 1008.7mb 52f 56f
4:04am 4.5ft 6s 16 18 mph 1008.9mb 52f 57f
3:04am 4ft 5s 16 18 mph 1008.9mb 53f 57f
2:04am 4.5ft 6s 16 18 mph 1009.1mb 53f 57f
1:04am 3.5ft 6s 11 13 mph 1009.4mb 53f 57f
12:04am 3.5ft 5s 9 11 mph 1009.7mb 52f 57f
Sun 06/18 11:04pm 4ft 6s 11 13 mph 1008.9mb 52f 57f
10:04pm 3.5ft 5s 11 16 mph 1009.2mb 52f 57f
9:04pm 3.5ft 8s 13 16 mph 1008.7mb 53f 58f
8:04pm 3.5ft 5s 11 13 mph 1008.4mb 52f 57f
7:04pm 3ft 8s 11 13 mph 1008.6mb 53f 59f
6:04pm 3ft 8s 11 13 mph 1008.6mb 54f 59f
5:04pm 2.5ft 8s 7 9 mph 1009.3mb 54f 56f
4:04pm 2.5ft 8s 9 9 mph 1010.2mb 53f 56f
3:04pm 3ft 8s 7 9 mph 1010.5mb 55f 56f
2:04pm 3ft 8s 7 9 mph 1010.7mb 54f 56f
1:04pm 3ft 8s 7 9 mph 1011.4mb 54f 56f